createdAt,value
2019-01-15T00:00:54.339Z,3.12
2019-01-15T00:04:59.025Z,3.03
2019-01-15T00:09:05.479Z,2.92
2019-01-15T00:13:10.168Z,2.86
2019-01-15T00:17:14.847Z,2.82
2019-01-15T00:21:19.533Z,2.82
2019-01-15T00:25:24.216Z,2.87
2019-01-15T00:29:28.911Z,2.90
2019-01-15T00:33:33.595Z,2.95
2019-01-15T00:37:38.264Z,2.95
2019-01-15T00:41:42.950Z,2.94
2019-01-15T00:45:47.634Z,2.93
2019-01-15T00:49:52.325Z,2.90
2019-01-15T00:53:57.012Z,2.88
2019-01-15T00:58:01.683Z,2.85
2019-01-15T01:02:06.368Z,2.82
2019-01-15T01:06:11.051Z,2.78
2019-01-15T01:10:16.302Z,2.70
2019-01-15T01:14:20.985Z,2.66
2019-01-15T01:18:25.659Z,2.64
2019-01-15T01:22:30.350Z,2.63
2019-01-15T01:26:35.038Z,2.64
2019-01-15T01:30:39.726Z,2.67
2019-01-15T01:34:44.409Z,2.66
2019-01-15T01:38:49.083Z,2.65
2019-01-15T01:42:53.772Z,2.68
2019-01-15T01:46:58.458Z,2.70
2019-01-15T01:51:03.139Z,2.71
2019-01-15T01:55:09.957Z,2.73
2019-01-15T01:59:14.647Z,2.76
2019-01-15T02:03:19.407Z,2.81
2019-01-15T02:07:24.101Z,2.80
2019-01-15T02:11:28.783Z,2.78
2019-01-15T02:15:33.460Z,2.78
2019-01-15T02:19:38.155Z,2.80
2019-01-15T02:23:42.837Z,2.82
2019-01-15T02:27:49.172Z,2.86
2019-01-15T02:31:53.859Z,2.90
2019-01-15T02:35:58.532Z,2.97
2019-01-15T02:40:04.389Z,3.01
2019-01-15T02:44:09.063Z,3.03
2019-01-15T02:48:13.743Z,3.02
2019-01-15T02:52:18.421Z,3.08
2019-01-15T02:56:23.087Z,3.07
2019-01-15T03:00:27.769Z,3.06
2019-01-15T03:04:32.510Z,3.09
2019-01-15T03:08:37.133Z,3.13
2019-01-15T03:12:43.457Z,3.16
2019-01-15T03:16:48.127Z,3.17
2019-01-15T03:20:52.807Z,3.25
2019-01-15T03:24:58.463Z,3.30
2019-01-15T03:29:03.143Z,3.39
2019-01-15T03:33:07.828Z,3.43
2019-01-15T03:37:12.487Z,3.45
2019-01-15T03:41:17.179Z,3.45
2019-01-15T03:45:21.854Z,3.46
2019-01-15T03:49:26.535Z,3.46
2019-01-15T03:53:32.195Z,3.43
2019-01-15T03:57:36.862Z,3.35
2019-01-15T04:01:41.540Z,3.26
2019-01-15T04:05:46.215Z,3.24
2019-01-15T04:09:50.967Z,3.24
2019-01-15T04:13:55.649Z,3.24
2019-01-15T04:18:00.312Z,3.27
2019-01-15T04:22:04.997Z,3.27
2019-01-15T04:26:09.670Z,3.27
2019-01-15T04:30:19.672Z,3.29
2019-01-15T04:34:24.352Z,3.32
2019-01-15T04:38:30.094Z,3.30
2019-01-15T04:42:34.765Z,3.33
2019-01-15T04:46:39.450Z,3.32
2019-01-15T04:50:44.131Z,3.30
2019-01-15T04:54:49.878Z,3.30
2019-01-15T04:58:54.550Z,3.30
2019-01-15T05:02:59.698Z,3.32
2019-01-15T05:07:04.382Z,3.30
2019-01-15T05:11:09.055Z,3.30
2019-01-15T05:15:16.438Z,3.31
2019-01-15T05:19:21.116Z,3.31
2019-01-15T05:23:25.790Z,3.32
2019-01-15T05:27:30.467Z,3.29
2019-01-15T05:31:35.149Z,3.32
2019-01-15T05:35:39.829Z,3.37
2019-01-15T05:39:44.504Z,3.39
2019-01-15T05:43:49.184Z,3.42
2019-01-15T05:47:55.702Z,3.44
2019-01-15T05:52:00.375Z,3.48
2019-01-15T05:56:05.056Z,3.50
2019-01-15T06:00:12.728Z,3.53
2019-01-15T06:04:17.403Z,3.56
2019-01-15T06:08:22.086Z,3.61
2019-01-15T06:12:26.762Z,3.62
2019-01-15T06:16:31.465Z,3.61
2019-01-15T06:20:36.155Z,3.61
2019-01-15T06:24:40.822Z,3.61
2019-01-15T06:28:45.769Z,3.63
2019-01-15T06:32:50.449Z,3.71
2019-01-15T06:36:55.124Z,3.74
2019-01-15T06:40:59.853Z,3.72
2019-01-15T06:45:08.037Z,3.75
2019-01-15T06:49:12.717Z,3.70
2019-01-15T06:53:17.400Z,3.69
2019-01-15T06:57:22.077Z,3.68
2019-01-15T07:01:26.742Z,3.69
2019-01-15T07:05:31.428Z,4.06
2019-01-15T07:09:36.105Z,4.99
2019-01-15T07:13:40.790Z,4.91
2019-01-15T07:17:45.463Z,4.56
2019-01-15T07:21:50.408Z,4.24
2019-01-15T07:25:55.084Z,4.07
2019-01-15T07:29:59.765Z,3.95
2019-01-15T07:34:04.439Z,3.88
2019-01-15T07:38:09.117Z,3.82
2019-01-15T07:42:13.787Z,3.77
2019-01-15T07:46:18.466Z,3.76
2019-01-15T07:50:23.148Z,3.71
2019-01-15T07:54:27.824Z,3.79
2019-01-15T07:58:32.557Z,3.91
2019-01-15T08:02:37.190Z,3.98
2019-01-15T08:06:41.863Z,4.12
2019-01-15T08:10:46.545Z,4.29
2019-01-15T08:14:51.219Z,4.48
2019-01-15T08:18:55.906Z,4.59
2019-01-15T08:23:00.571Z,4.65
2019-01-15T08:27:05.255Z,4.75
2019-01-15T08:31:09.947Z,4.78
2019-01-15T08:35:14.974Z,4.78
2019-01-15T08:39:19.649Z,4.81
2019-01-15T08:43:24.324Z,4.86
2019-01-15T08:47:30.567Z,4.99
2019-01-15T08:51:35.622Z,5.17
2019-01-15T08:55:40.304Z,5.34
2019-01-15T08:59:44.976Z,5.50
2019-01-15T09:03:49.651Z,5.62
2019-01-15T09:07:54.328Z,5.65
2019-01-15T09:11:59.006Z,5.65
2019-01-15T09:16:03.687Z,5.63
2019-01-15T09:20:16.794Z,5.67
2019-01-15T09:24:21.463Z,5.73
2019-01-15T09:28:26.140Z,5.92
2019-01-15T09:32:30.819Z,6.11
2019-01-15T09:36:35.505Z,6.17
2019-01-15T09:40:40.176Z,6.11
2019-01-15T09:44:45.328Z,6.04
2019-01-15T09:48:50.279Z,6.00
2019-01-15T09:52:54.996Z,5.92
2019-01-15T09:57:00.642Z,5.87
2019-01-15T10:01:05.323Z,5.88
2019-01-15T10:05:10.004Z,5.90
2019-01-15T10:09:14.685Z,6.00
2019-01-15T10:13:19.363Z,6.03
2019-01-15T10:17:24.043Z,6.01
2019-01-15T10:21:28.722Z,6.13
2019-01-15T10:25:33.939Z,6.31
2019-01-15T10:29:38.791Z,6.47
2019-01-15T10:33:46.733Z,6.56
2019-01-15T10:37:51.491Z,6.46
2019-01-15T10:41:56.160Z,6.37
2019-01-15T10:46:00.841Z,6.32
2019-01-15T10:50:08.758Z,6.40
2019-01-15T10:54:13.438Z,6.40
2019-01-15T10:58:18.115Z,6.47
2019-01-15T11:02:22.788Z,6.60
2019-01-15T11:06:27.465Z,6.61
2019-01-15T11:10:32.147Z,6.60
2019-01-15T11:14:37.497Z,6.68
2019-01-15T11:18:42.198Z,6.78
2019-01-15T11:22:46.945Z,6.89
2019-01-15T11:26:51.627Z,6.93
2019-01-15T11:30:56.303Z,6.88
2019-01-15T11:35:00.993Z,6.80
2019-01-15T11:39:07.887Z,6.74
2019-01-15T11:43:12.564Z,6.76
2019-01-15T11:47:17.243Z,6.82
2019-01-15T11:51:21.920Z,6.91
2019-01-15T11:55:26.606Z,6.90
2019-01-15T11:59:31.633Z,6.96
2019-01-15T12:03:54.176Z,7.00
2019-01-15T12:08:02.985Z,6.93
2019-01-15T12:12:18.468Z,6.95
2019-01-15T12:16:43.087Z,6.91
2019-01-15T12:20:51.873Z,6.90
2019-01-15T12:25:14.665Z,6.81
2019-01-15T12:29:26.792Z,6.84
2019-01-15T12:33:41.883Z,7.01
2019-01-15T12:37:53.974Z,7.21
2019-01-15T12:42:18.286Z,7.26
2019-01-15T12:46:27.303Z,7.27
2019-01-15T12:50:33.616Z,7.17
2019-01-15T12:54:48.730Z,7.10
2019-01-15T12:58:55.064Z,7.08
2019-01-15T13:03:16.332Z,7.04
2019-01-15T13:07:37.694Z,7.01
2019-01-15T13:11:44.038Z,6.95
2019-01-15T13:15:51.620Z,6.99
2019-01-15T13:20:09.942Z,7.09
2019-01-15T13:24:32.790Z,7.12
2019-01-15T13:28:48.307Z,7.12
2019-01-15T13:33:06.176Z,7.18
2019-01-15T13:37:15.185Z,7.24
2019-01-15T13:41:21.496Z,7.24
2019-01-15T13:45:41.675Z,7.32
2019-01-15T13:49:44.855Z,7.45
2019-01-15T13:53:57.131Z,7.62
2019-01-15T13:58:06.147Z,7.72
2019-01-15T14:02:24.120Z,7.76
2019-01-15T14:06:30.450Z,7.65
2019-01-15T14:10:39.647Z,7.61
2019-01-15T14:15:04.124Z,7.65
2019-01-15T14:19:28.667Z,7.73
2019-01-15T14:23:37.676Z,7.68
2019-01-15T14:32:32.102Z,7.47
2019-01-15T14:36:47.441Z,7.42
2019-01-15T14:40:53.768Z,7.31
2019-01-15T14:45:03.040Z,7.29
2019-01-15T14:49:13.357Z,7.23
2019-01-15T14:53:28.678Z,7.17
2019-01-15T14:57:54.177Z,7.18
2019-01-15T15:02:15.242Z,7.15
2019-01-15T15:06:48.181Z,7.05
2019-01-15T15:10:57.218Z,6.99
2019-01-15T15:15:15.559Z,6.94
2019-01-15T15:19:39.178Z,6.96
2019-01-15T15:24:01.671Z,6.93
2019-01-15T15:28:10.670Z,6.85
2019-01-15T15:32:17.008Z,6.91
2019-01-15T15:36:23.334Z,6.87
2019-01-15T15:40:41.505Z,6.83
2019-01-15T15:44:50.530Z,6.87
2019-01-15T15:49:06.766Z,6.96
2019-01-15T15:53:16.022Z,6.91
2019-01-15T15:57:25.237Z,6.87
2019-01-15T16:01:47.760Z,6.76
2019-01-15T16:06:06.053Z,6.74
2019-01-15T16:10:28.814Z,6.72
2019-01-15T16:14:47.185Z,6.74
2019-01-15T16:18:55.944Z,6.83
2019-01-15T16:23:08.961Z,7.14
2019-01-15T16:27:31.338Z,7.31
2019-01-15T16:31:37.704Z,7.26
2019-01-15T16:35:56.018Z,7.17
2019-01-15T16:40:05.270Z,7.03
2019-01-15T16:44:27.416Z,6.96
2019-01-15T16:48:33.731Z,6.91
2019-01-15T16:52:40.051Z,6.87
2019-01-15T16:56:46.369Z,6.81
2019-01-15T17:01:08.766Z,6.75
2019-01-15T17:05:31.591Z,6.70
2019-01-15T17:09:46.976Z,6.61
2019-01-15T17:13:53.285Z,6.55
2019-01-15T17:18:11.506Z,6.52
2019-01-15T17:22:23.687Z,6.50
2019-01-15T17:26:35.810Z,6.46
2019-01-15T17:30:51.722Z,6.51
2019-01-15T17:35:07.207Z,6.53
2019-01-15T17:39:32.305Z,6.57
2019-01-15T17:43:41.441Z,6.60
2019-01-15T17:47:53.735Z,6.62
2019-01-15T17:52:18.235Z,6.59
2019-01-15T17:56:30.662Z,6.57
2019-01-15T18:00:42.985Z,6.55
2019-01-15T18:04:49.310Z,6.52
2019-01-15T18:08:58.376Z,6.52
2019-01-15T18:13:21.199Z,6.53
2019-01-15T18:17:27.525Z,6.51
2019-01-15T18:21:33.845Z,6.51
2019-01-15T18:25:42.859Z,6.51
2019-01-15T18:30:01.101Z,6.50
2019-01-15T18:34:19.685Z,6.44
2019-01-15T18:38:29.058Z,6.48
2019-01-15T18:42:35.400Z,6.47
2019-01-15T18:46:57.047Z,6.46
2019-01-15T18:51:03.369Z,6.46
2019-01-15T18:55:24.300Z,6.44
2019-01-15T18:59:30.611Z,6.43
2019-01-15T19:03:42.679Z,6.39
2019-01-15T19:07:49.006Z,6.36
2019-01-15T19:11:56.400Z,6.37
2019-01-15T19:16:18.847Z,6.32
2019-01-15T19:20:25.322Z,6.28
2019-01-15T19:24:34.542Z,6.21
2019-01-15T19:28:43.786Z,6.20
2019-01-15T19:33:08.597Z,6.19
2019-01-15T19:37:14.956Z,6.18
2019-01-15T19:41:27.442Z,6.15
2019-01-15T19:45:33.776Z,6.12
2019-01-15T19:49:56.735Z,6.11
2019-01-15T19:54:06.031Z,6.15
2019-01-15T19:58:30.709Z,6.19
2019-01-15T20:02:37.052Z,6.22
2019-01-15T20:06:46.115Z,6.21
2019-01-15T20:11:10.824Z,6.17
2019-01-15T20:15:32.241Z,6.17
2019-01-15T20:19:47.392Z,6.17
2019-01-15T20:23:56.454Z,6.21
2019-01-15T20:28:05.552Z,6.20
2019-01-15T20:32:14.802Z,6.19
2019-01-15T20:36:36.405Z,6.16
2019-01-15T20:40:48.682Z,6.15
2019-01-15T20:45:10.025Z,6.10
2019-01-15T20:49:19.380Z,6.05
2019-01-15T20:53:25.733Z,6.05
2019-01-15T20:57:32.074Z,6.02
2019-01-15T21:01:38.408Z,6.09
2019-01-15T21:05:44.751Z,6.11
2019-01-15T21:10:09.596Z,6.14
2019-01-15T21:14:15.948Z,6.10
2019-01-15T21:18:22.281Z,6.06
2019-01-15T21:22:43.708Z,6.09
2019-01-15T21:26:55.861Z,6.19
2019-01-15T21:31:14.056Z,6.20
2019-01-15T21:35:29.280Z,6.17
2019-01-15T21:39:44.671Z,6.39
2019-01-15T21:43:53.693Z,6.54
2019-01-15T21:48:02.739Z,6.46
2019-01-15T21:52:25.204Z,6.43
2019-01-15T21:56:31.571Z,6.41
2019-01-15T22:00:50.158Z,6.36
2019-01-15T22:04:59.174Z,6.32
2019-01-15T22:09:26.086Z,6.30
2019-01-15T22:13:32.447Z,6.32
2019-01-15T22:17:38.779Z,6.37
2019-01-15T22:22:01.529Z,6.37
2019-01-15T22:26:10.587Z,6.37
2019-01-15T22:30:16.916Z,6.35
2019-01-15T22:34:23.277Z,6.36
2019-01-15T22:38:32.326Z,6.35
2019-01-15T22:42:38.680Z,6.34
2019-01-15T22:46:47.944Z,6.33
2019-01-15T22:50:56.919Z,6.30
2019-01-15T22:55:03.263Z,6.35
2019-01-15T22:59:18.801Z,6.38
2019-01-15T23:03:25.149Z,6.38
2019-01-15T23:07:31.483Z,6.42
2019-01-15T23:11:40.872Z,6.39
2019-01-15T23:15:52.889Z,6.36
2019-01-15T23:20:15.413Z,6.38
2019-01-15T23:24:21.753Z,6.41
2019-01-15T23:28:28.091Z,6.44
2019-01-15T23:32:34.448Z,6.45
2019-01-15T23:36:59.104Z,6.47
2019-01-15T23:41:08.114Z,6.42
2019-01-15T23:45:19.953Z,6.39
2019-01-15T23:49:26.331Z,6.36
2019-01-15T23:53:44.615Z,6.31
2019-01-15T23:57:50.949Z,6.33
